LFLB/CMF METAR and TAF weather

Enter ICAO airport designator
Station Type Date Time Source
LFLB METAR 2019/08/24 06:30 UTC NOAA

LFLB 240630Z AUTO 00000KT 7000 NSC 16/16 Q1022 TEMPO 2000 BR


Station Type Date Time Source
LFLB Decoded METAR 2019/08/24 06:30 UTC NOAA

Station name not available
Aug 24, 2019 - 02:30 AM EDT / 2019.08.24 0630 UTC
Wind: Calm:0
Visibility: 4 mile(s):0
Temperature: 60 F (16 C)
Dew Point: 60 F (16 C)
Relative Humidity: 100%
Pressure (altimeter): 30.18 in. Hg (1022 hPa)
ob: LFLB 240630Z AUTO 00000KT 7000 NSC 16/16 Q1022 TEMPO 2000 BR
cycle: 6

Station Type Date Time Source
LFLB TAF 2019/08/24 06:21 UTC NOAA

TAF LFLB 240500Z 2406/2506 VRB03KT CAVOK PROB40
TEMPO 2406/2408 2000 BR

Example: see airport list